KCEW/CEW METAR and TAF weather

Enter ICAO airport designator
Station Type Date Time Source
KCEW METAR 2020/07/12 06:53 UTC NOAA

KCEW 120653Z AUTO 00000KT 10SM CLR 21/20 A2992 RMK AO2 SLP128 T02110200


Station Type Date Time Source
KCEW Decoded METAR 2020/07/12 06:53 UTC NOAA

CRESTVIEW SIKES AIRPORT, FL, United States (KCEW) 30-46N 086-31W 55M
Jul 12, 2020 - 02:53 AM EDT / 2020.07.12 0653 UTC
Wind: Calm:0
Visibility: 10 mile(s):0
Sky conditions: clear
Temperature: 70.0 F (21.1 C)
Dew Point: 68.0 F (20.0 C)
Relative Humidity: 93%
Pressure (altimeter): 29.92 in. Hg (1013 hPa)
ob: KCEW 120653Z AUTO 00000KT 10SM CLR 21/20 A2992 RMK AO2 SLP128 T02110200
cycle: 7

Station Type Date Time Source
KCEW TAF UTC NOAA

Error!

Example: see airport list